LFBOLFBZ

Guest
Details From LFBO - Toulouse Blagnac
To LFBZ - Biarritz Bayonne Anglet
Flight Number -
Tags Routegen
Created
Modified
Stats Distance 126 nm / 233 km
Max Altitude 0 ft / 0 m
Waypoints 2
Social Downloads 12
Likes 0
Share VATSIM

Download

Looking for another format? Having issues loading an existing format? Contact us
Advertisement - Login to hide

Notes

None

Route

LFBO LFBZ

ID Type Via Altitude (ft/m) Position (lat/lon) Dist (leg/tot) Name
O LFBO APT - 0 / 0 43.64411 / 1.34593 - / 0 nm
O LFBZ APT - 0 / 0 43.46824 / -1.53723 125 / 125 nm

Altitude Profile

Advertisement - Login to hide

LFBO

Details ICAO LFBO (TLS)
Name Toulouse Blagnac
Region France
Timezone Europe/Paris (UTC+1.0)
Stats Elevation 499 ft / 152 m (AMSL)
Location 43.629000° 1.363970°
Runways 2
Magnetic Variation 0.727° E

METAR

LFBO 240800Z AUTO VRB02KT CAVOK 10/05 Q1025 NOSIG

Decode

TAF

TAF LFBO 240500Z 2406/2512 VRB03KT CAVOK BECMG 2409/2411 34008KT BECMG 2502/2504 26006KT

Decode

Departure Runways

ID Width Length Bearing (true/mag) Surface Threshold Overrun Markings Lighting
14L 148 ft / 45 m 9,923 ft / 3,025 m 143.00° / 142.27° ASPHALT 0 ft / 0 m 30 ft / 9 m PREC-APP CENTERLINE EDGE THRESHOLD ALSF-I REIL-OMNI
14R 148 ft / 45 m 11,484 ft / 3,500 m 142.99° / 142.26° ASPHALT 0 ft / 0 m 295 ft / 90 m PREC-APP CENTERLINE EDGE THRESHOLD ALSF-II TDZ REIL-OMNI
32L 148 ft / 45 m 11,484 ft / 3,500 m 323.01° / 322.28° ASPHALT 0 ft / 0 m 194 ft / 59 m PREC-APP CENTERLINE EDGE THRESHOLD REIL-OMNI
32R 148 ft / 45 m 9,923 ft / 3,025 m 323.02° / 322.29° ASPHALT 0 ft / 0 m 0 ft / 0 m PREC-APP CENTERLINE EDGE THRESHOLD REIL-OMNI

LFBZ

Details ICAO LFBZ (BIQ)
Name Biarritz-Anglet-Bayonne
Region France
Timezone Europe/Paris (UTC+1.0)
Stats Elevation 245 ft / 75 m (AMSL)
Location 43.468400° -1.523330°
Runways 1
Magnetic Variation 0.068° W

METAR

LFBZ 240800Z AUTO 19002KT CAVOK 12/09 Q1026 NOSIG

Decode

TAF

TAF LFBZ 240500Z 2406/2506 VRB02KT CAVOK BECMG 2408/2410 30008KT PROB30 TEMPO 2418/2506 BKN003

Decode

Destination Runways

ID Width Length Bearing (true/mag) Surface Threshold Overrun Markings Lighting
09 148 ft / 45 m 7,389 ft / 2,252 m 89.16° / 89.23° ASPHALT 686 ft / 209 m 0 ft / 0 m APP CENTERLINE EDGE THRESHOLD
27 148 ft / 45 m 7,389 ft / 2,252 m 269.18° / 269.25° ASPHALT 0 ft / 0 m 0 ft / 0 m PREC-APP CENTERLINE EDGE THRESHOLD

Approach Navaids

Runway Type Ident Frequency Range Bearing (true/mag) Slope Elevation
27 DME BZ 111.35 MHz 18 nm / 33 km - - 223 ft / 68 m (AMSL)
27 LOC-ILS BZ 111.35 MHz 18 nm / 33 km 269.04° / 269.11 ° - 234 ft / 71 m (AMSL)
27 GS BZ 111.35 MHz 10 nm / 19 km 269.27° / 269.33 ° 3.00° 234 ft / 71 m (AMSL)

Popular Alternatives